sensor_id;sensor_type;location;lat;lon;timestamp;temperature;humidity
15394;DHT22;7795;47.986;11.868;2023-01-08T00:01:03;3.70;77.80
15394;DHT22;7795;47.986;11.868;2023-01-08T00:03:29;3.60;77.90
15394;DHT22;7795;47.986;11.868;2023-01-08T00:05:59;3.60;78.00
15394;DHT22;7795;47.986;11.868;2023-01-08T00:08:25;3.60;78.10
15394;DHT22;7795;47.986;11.868;2023-01-08T00:10:53;3.60;78.10
15394;DHT22;7795;47.986;11.868;2023-01-08T00:13:20;3.60;78.20
15394;DHT22;7795;47.986;11.868;2023-01-08T00:15:47;3.60;78.20
15394;DHT22;7795;47.986;11.868;2023-01-08T00:18:13;3.60;78.20
15394;DHT22;7795;47.986;11.868;2023-01-08T00:20:40;3.50;78.80
15394;DHT22;7795;47.986;11.868;2023-01-08T00:23:09;3.50;78.10
15394;DHT22;7795;47.986;11.868;2023-01-08T00:25:35;3.50;78.20
15394;DHT22;7795;47.986;11.868;2023-01-08T00:28:00;3.50;78.10
15394;DHT22;7795;47.986;11.868;2023-01-08T00:30:26;3.50;78.30
15394;DHT22;7795;47.986;11.868;2023-01-08T00:32:53;3.50;78.40
15394;DHT22;7795;47.986;11.868;2023-01-08T00:35:19;3.50;78.50
15394;DHT22;7795;47.986;11.868;2023-01-08T00:37:48;3.50;78.50
15394;DHT22;7795;47.986;11.868;2023-01-08T00:40:13;3.50;78.50
15394;DHT22;7795;47.986;11.868;2023-01-08T00:42:39;3.50;78.40
15394;DHT22;7795;47.986;11.868;2023-01-08T00:45:06;3.50;78.50
15394;DHT22;7795;47.986;11.868;2023-01-08T00:47:32;3.50;78.60
15394;DHT22;7795;47.986;11.868;2023-01-08T00:49:59;3.50;78.60
15394;DHT22;7795;47.986;11.868;2023-01-08T00:52:25;3.50;78.60
15394;DHT22;7795;47.986;11.868;2023-01-08T00:54:50;3.40;78.60
15394;DHT22;7795;47.986;11.868;2023-01-08T00:57:16;3.50;78.60
15394;DHT22;7795;47.986;11.868;2023-01-08T00:59:42;3.50;78.70
15394;DHT22;7795;47.986;11.868;2023-01-08T01:02:08;3.50;78.80
15394;DHT22;7795;47.986;11.868;2023-01-08T01:04:34;3.50;78.90
15394;DHT22;7795;47.986;11.868;2023-01-08T01:07:01;3.50;78.90
15394;DHT22;7795;47.986;11.868;2023-01-08T01:09:27;3.50;78.90
15394;DHT22;7795;47.986;11.868;2023-01-08T01:11:53;3.50;78.80
15394;DHT22;7795;47.986;11.868;2023-01-08T01:14:19;3.50;78.80
15394;DHT22;7795;47.986;11.868;2023-01-08T01:16:45;3.50;78.70
15394;DHT22;7795;47.986;11.868;2023-01-08T01:19:13;3.50;78.50
15394;DHT22;7795;47.986;11.868;2023-01-08T01:21:39;3.50;78.30
15394;DHT22;7795;47.986;11.868;2023-01-08T01:24:06;3.50;78.20
15394;DHT22;7795;47.986;11.868;2023-01-08T01:26:33;3.50;78.10
15394;DHT22;7795;47.986;11.868;2023-01-08T01:28:59;3.40;78.00
15394;DHT22;7795;47.986;11.868;2023-01-08T01:31:27;3.40;78.00
15394;DHT22;7795;47.986;11.868;2023-01-08T01:33:53;3.40;78.00
15394;DHT22;7795;47.986;11.868;2023-01-08T01:36:20;3.40;78.00
15394;DHT22;7795;47.986;11.868;2023-01-08T01:38:52;3.30;78.00
15394;DHT22;7795;47.986;11.868;2023-01-08T01:41:23;3.30;78.00
15394;DHT22;7795;47.986;11.868;2023-01-08T01:43:50;3.30;78.00
15394;DHT22;7795;47.986;11.868;2023-01-08T01:46:21;3.30;78.10
15394;DHT22;7795;47.986;11.868;2023-01-08T01:48:50;3.20;78.00
15394;DHT22;7795;47.986;11.868;2023-01-08T01:51:18;3.20;78.00
15394;DHT22;7795;47.986;11.868;2023-01-08T01:53:45;3.20;78.00
15394;DHT22;7795;47.986;11.868;2023-01-08T01:56:11;3.20;78.10
15394;DHT22;7795;47.986;11.868;2023-01-08T01:58:38;3.20;78.20
15394;DHT22;7795;47.986;11.868;2023-01-08T02:01:05;3.20;78.20
15394;DHT22;7795;47.986;11.868;2023-01-08T02:03:34;3.10;78.20
15394;DHT22;7795;47.986;11.868;2023-01-08T02:06:04;3.10;78.30
15394;DHT22;7795;47.986;11.868;2023-01-08T02:08:36;3.10;78.30
15394;DHT22;7795;47.986;11.868;2023-01-08T02:11:09;3.10;78.40
15394;DHT22;7795;47.986;11.868;2023-01-08T02:13:39;3.10;78.40
15394;DHT22;7795;47.986;11.868;2023-01-08T02:16:10;3.10;78.50
15394;DHT22;7795;47.986;11.868;2023-01-08T02:18:43;3.10;78.50
15394;DHT22;7795;47.986;11.868;2023-01-08T02:21:14;3.10;78.50
15394;DHT22;7795;47.986;11.868;2023-01-08T02:23:46;3.10;78.40
15394;DHT22;7795;47.986;11.868;2023-01-08T02:26:19;3.10;78.40
15394;DHT22;7795;47.986;11.868;2023-01-08T02:28:50;3.10;78.50
15394;DHT22;7795;47.986;11.868;2023-01-08T02:31:19;3.00;78.40
15394;DHT22;7795;47.986;11.868;2023-01-08T02:33:46;3.00;78.40
15394;DHT22;7795;47.986;11.868;2023-01-08T02:42:17;3.00;78.30
15394;DHT22;7795;47.986;11.868;2023-01-08T02:44:53;3.00;78.10
15394;DHT22;7795;47.986;11.868;2023-01-08T02:47:24;2.90;77.90
15394;DHT22;7795;47.986;11.868;2023-01-08T02:49:57;2.90;77.90
15394;DHT22;7795;47.986;11.868;2023-01-08T02:52:26;2.80;77.70
15394;DHT22;7795;47.986;11.868;2023-01-08T02:54:54;2.80;77.70
15394;DHT22;7795;47.986;11.868;2023-01-08T02:57:23;2.70;77.90
15394;DHT22;7795;47.986;11.868;2023-01-08T02:59:49;2.70;78.00
15394;DHT22;7795;47.986;11.868;2023-01-08T03:02:16;2.70;78.20
15394;DHT22;7795;47.986;11.868;2023-01-08T03:04:48;2.70;78.30
15394;DHT22;7795;47.986;11.868;2023-01-08T03:07:16;2.70;78.40
15394;DHT22;7795;47.986;11.868;2023-01-08T03:09:41;2.70;78.30
15394;DHT22;7795;47.986;11.868;2023-01-08T03:12:14;2.60;78.30
15394;DHT22;7795;47.986;11.868;2023-01-08T03:14:46;2.60;78.30
15394;DHT22;7795;47.986;11.868;2023-01-08T03:17:19;2.60;78.40
15394;DHT22;7795;47.986;11.868;2023-01-08T03:19:49;2.60;78.60
15394;DHT22;7795;47.986;11.868;2023-01-08T03:22:17;2.60;78.70
15394;DHT22;7795;47.986;11.868;2023-01-08T03:24:46;2.60;78.60
15394;DHT22;7795;47.986;11.868;2023-01-08T03:27:17;2.60;78.70
15394;DHT22;7795;47.986;11.868;2023-01-08T03:29:46;2.60;78.60
15394;DHT22;7795;47.986;11.868;2023-01-08T03:32:14;2.60;78.50
15394;DHT22;7795;47.986;11.868;2023-01-08T03:34:42;2.50;78.40
15394;DHT22;7795;47.986;11.868;2023-01-08T03:37:10;2.50;78.40
15394;DHT22;7795;47.986;11.868;2023-01-08T03:39:41;2.50;78.40
15394;DHT22;7795;47.986;11.868;2023-01-08T03:42:09;2.50;78.40
15394;DHT22;7795;47.986;11.868;2023-01-08T03:44:35;2.50;78.40
15394;DHT22;7795;47.986;11.868;2023-01-08T03:47:03;2.50;78.40
15394;DHT22;7795;47.986;11.868;2023-01-08T03:49:30;2.50;78.40
15394;DHT22;7795;47.986;11.868;2023-01-08T03:51:56;2.40;78.30
15394;DHT22;7795;47.986;11.868;2023-01-08T03:54:24;2.40;78.40
15394;DHT22;7795;47.986;11.868;2023-01-08T03:56:52;2.40;78.40
15394;DHT22;7795;47.986;11.868;2023-01-08T03:59:18;2.40;78.50
15394;DHT22;7795;47.986;11.868;2023-01-08T04:01:43;2.40;78.60
15394;DHT22;7795;47.986;11.868;2023-01-08T04:04:11;2.40;78.70
15394;DHT22;7795;47.986;11.868;2023-01-08T04:06:36;2.40;79.40
15394;DHT22;7795;47.986;11.868;2023-01-08T04:09:02;2.40;78.70
15394;DHT22;7795;47.986;11.868;2023-01-08T04:11:28;2.40;78.70
15394;DHT22;7795;47.986;11.868;2023-01-08T04:13:54;2.40;78.70
15394;DHT22;7795;47.986;11.868;2023-01-08T04:16:20;2.40;78.70
15394;DHT22;7795;47.986;11.868;2023-01-08T04:18:46;2.40;78.70
15394;DHT22;7795;47.986;11.868;2023-01-08T04:21:13;2.40;78.70
15394;DHT22;7795;47.986;11.868;2023-01-08T04:23:39;2.40;78.80
15394;DHT22;7795;47.986;11.868;2023-01-08T04:26:05;2.40;78.90
15394;DHT22;7795;47.986;11.868;2023-01-08T04:28:31;2.40;78.90
15394;DHT22;7795;47.986;11.868;2023-01-08T04:30:56;2.40;78.90
15394;DHT22;7795;47.986;11.868;2023-01-08T04:33:22;2.40;78.90
15394;DHT22;7795;47.986;11.868;2023-01-08T04:35:49;2.40;78.90
15394;DHT22;7795;47.986;11.868;2023-01-08T04:38:17;2.50;78.90
15394;DHT22;7795;47.986;11.868;2023-01-08T04:40:43;2.50;78.80
15394;DHT22;7795;47.986;11.868;2023-01-08T04:43:08;2.50;78.80
15394;DHT22;7795;47.986;11.868;2023-01-08T04:45:34;2.50;78.70
15394;DHT22;7795;47.986;11.868;2023-01-08T04:48:00;2.50;78.70
15394;DHT22;7795;47.986;11.868;2023-01-08T04:50:26;2.50;78.70
15394;DHT22;7795;47.986;11.868;2023-01-08T04:52:52;2.50;78.90
15394;DHT22;7795;47.986;11.868;2023-01-08T04:55:19;2.40;78.80
15394;DHT22;7795;47.986;11.868;2023-01-08T04:57:45;2.50;78.90
15394;DHT22;7795;47.986;11.868;2023-01-08T05:00:13;2.50;78.90
15394;DHT22;7795;47.986;11.868;2023-01-08T05:02:39;2.50;78.90
15394;DHT22;7795;47.986;11.868;2023-01-08T05:05:05;2.50;78.80
15394;DHT22;7795;47.986;11.868;2023-01-08T05:07:31;2.40;78.70
15394;DHT22;7795;47.986;11.868;2023-01-08T05:09:57;2.40;78.60
15394;DHT22;7795;47.986;11.868;2023-01-08T05:12:24;2.40;79.30
15394;DHT22;7795;47.986;11.868;2023-01-08T05:14:50;2.40;78.60
15394;DHT22;7795;47.986;11.868;2023-01-08T05:17:15;2.40;78.50
15394;DHT22;7795;47.986;11.868;2023-01-08T05:19:41;2.40;78.60
15394;DHT22;7795;47.986;11.868;2023-01-08T05:22:07;2.40;79.30
15394;DHT22;7795;47.986;11.868;2023-01-08T05:24:33;2.40;78.60
15394;DHT22;7795;47.986;11.868;2023-01-08T05:26:59;2.40;78.60
15394;DHT22;7795;47.986;11.868;2023-01-08T05:29:26;2.30;78.60
15394;DHT22;7795;47.986;11.868;2023-01-08T05:31:51;2.30;78.70
15394;DHT22;7795;47.986;11.868;2023-01-08T05:34:17;2.30;78.80
15394;DHT22;7795;47.986;11.868;2023-01-08T05:36:43;2.30;78.80
15394;DHT22;7795;47.986;11.868;2023-01-08T05:39:08;2.30;78.80
15394;DHT22;7795;47.986;11.868;2023-01-08T05:41:34;2.30;78.90
15394;DHT22;7795;47.986;11.868;2023-01-08T05:44:00;2.30;78.80
15394;DHT22;7795;47.986;11.868;2023-01-08T05:46:27;2.30;78.70
15394;DHT22;7795;47.986;11.868;2023-01-08T05:48:53;2.30;78.60
15394;DHT22;7795;47.986;11.868;2023-01-08T05:51:18;2.30;78.50
15394;DHT22;7795;47.986;11.868;2023-01-08T05:53:44;2.20;78.40
15394;DHT22;7795;47.986;11.868;2023-01-08T05:56:11;2.20;78.40
15394;DHT22;7795;47.986;11.868;2023-01-08T05:58:37;2.20;78.50
15394;DHT22;7795;47.986;11.868;2023-01-08T06:01:04;2.20;78.60
15394;DHT22;7795;47.986;11.868;2023-01-08T06:03:32;2.20;78.60
15394;DHT22;7795;47.986;11.868;2023-01-08T06:05:58;2.20;78.70
15394;DHT22;7795;47.986;11.868;2023-01-08T06:08:24;2.20;78.80
15394;DHT22;7795;47.986;11.868;2023-01-08T06:10:50;2.20;78.80
15394;DHT22;7795;47.986;11.868;2023-01-08T06:13:15;2.20;78.80
15394;DHT22;7795;47.986;11.868;2023-01-08T06:15:41;2.20;78.90
15394;DHT22;7795;47.986;11.868;2023-01-08T06:18:07;2.20;78.90
15394;DHT22;7795;47.986;11.868;2023-01-08T06:20:34;2.20;78.90
15394;DHT22;7795;47.986;11.868;2023-01-08T06:23:00;2.20;79.00
15394;DHT22;7795;47.986;11.868;2023-01-08T06:25:26;2.20;79.10
15394;DHT22;7795;47.986;11.868;2023-01-08T06:27:52;2.30;79.20
15394;DHT22;7795;47.986;11.868;2023-01-08T06:30:18;2.30;79.10
15394;DHT22;7795;47.986;11.868;2023-01-08T06:32:43;2.30;79.90
15394;DHT22;7795;47.986;11.868;2023-01-08T06:35:09;2.30;79.20
15394;DHT22;7795;47.986;11.868;2023-01-08T06:37:36;2.30;79.20
15394;DHT22;7795;47.986;11.868;2023-01-08T06:40:02;2.30;79.10
15394;DHT22;7795;47.986;11.868;2023-01-08T06:42:28;2.30;79.00
15394;DHT22;7795;47.986;11.868;2023-01-08T06:44:54;2.40;79.00
15394;DHT22;7795;47.986;11.868;2023-01-08T06:47:20;2.40;79.00
15394;DHT22;7795;47.986;11.868;2023-01-08T06:49:45;2.40;78.90
15394;DHT22;7795;47.986;11.868;2023-01-08T06:52:11;2.40;78.90
15394;DHT22;7795;47.986;11.868;2023-01-08T06:54:38;2.40;78.90
15394;DHT22;7795;47.986;11.868;2023-01-08T06:57:05;2.30;78.70
15394;DHT22;7795;47.986;11.868;2023-01-08T06:59:30;2.30;78.70
15394;DHT22;7795;47.986;11.868;2023-01-08T07:01:56;2.40;78.70
15394;DHT22;7795;47.986;11.868;2023-01-08T07:04:22;2.30;78.70
15394;DHT22;7795;47.986;11.868;2023-01-08T07:06:48;2.40;78.90
15394;DHT22;7795;47.986;11.868;2023-01-08T07:09:14;2.40;78.90
15394;DHT22;7795;47.986;11.868;2023-01-08T07:11:41;2.30;78.90
15394;DHT22;7795;47.986;11.868;2023-01-08T07:14:07;2.40;79.60
15394;DHT22;7795;47.986;11.868;2023-01-08T07:16:33;2.40;78.90
15394;DHT22;7795;47.986;11.868;2023-01-08T07:18:59;2.40;79.00
15394;DHT22;7795;47.986;11.868;2023-01-08T07:21:24;2.40;79.10
15394;DHT22;7795;47.986;11.868;2023-01-08T07:23:50;2.40;79.20
15394;DHT22;7795;47.986;11.868;2023-01-08T07:26:16;2.40;79.20
15394;DHT22;7795;47.986;11.868;2023-01-08T07:28:43;2.40;79.40
15394;DHT22;7795;47.986;11.868;2023-01-08T07:31:09;2.40;79.40
15394;DHT22;7795;47.986;11.868;2023-01-08T07:33:35;2.40;79.40
15394;DHT22;7795;47.986;11.868;2023-01-08T07:36:01;2.40;79.40
15394;DHT22;7795;47.986;11.868;2023-01-08T07:38:26;2.40;79.40
15394;DHT22;7795;47.986;11.868;2023-01-08T07:40:52;2.50;79.40
15394;DHT22;7795;47.986;11.868;2023-01-08T07:43:18;2.50;79.30
15394;DHT22;7795;47.986;11.868;2023-01-08T07:45:46;2.50;79.30
15394;DHT22;7795;47.986;11.868;2023-01-08T07:48:11;2.50;79.40
15394;DHT22;7795;47.986;11.868;2023-01-08T07:50:41;2.50;79.40
15394;DHT22;7795;47.986;11.868;2023-01-08T07:53:07;2.50;79.50
15394;DHT22;7795;47.986;11.868;2023-01-08T07:55:33;2.60;79.60
15394;DHT22;7795;47.986;11.868;2023-01-08T07:57:58;2.60;79.60
15394;DHT22;7795;47.986;11.868;2023-01-08T08:00:24;2.60;79.50
15394;DHT22;7795;47.986;11.868;2023-01-08T08:02:51;2.60;79.60
15394;DHT22;7795;47.986;11.868;2023-01-08T08:05:17;2.60;79.60
15394;DHT22;7795;47.986;11.868;2023-01-08T08:07:43;2.60;79.60
15394;DHT22;7795;47.986;11.868;2023-01-08T08:10:09;2.70;79.70
15394;DHT22;7795;47.986;11.868;2023-01-08T08:12:36;2.70;79.90
15394;DHT22;7795;47.986;11.868;2023-01-08T08:15:02;2.80;80.00
15394;DHT22;7795;47.986;11.868;2023-01-08T08:17:28;2.80;80.00
15394;DHT22;7795;47.986;11.868;2023-01-08T08:19:55;2.80;80.00
15394;DHT22;7795;47.986;11.868;2023-01-08T08:22:20;2.90;80.20
15394;DHT22;7795;47.986;11.868;2023-01-08T08:24:46;2.90;80.20
15394;DHT22;7795;47.986;11.868;2023-01-08T08:27:12;3.00;80.20
15394;DHT22;7795;47.986;11.868;2023-01-08T08:29:37;3.00;80.20
15394;DHT22;7795;47.986;11.868;2023-01-08T08:32:03;3.10;80.20
15394;DHT22;7795;47.986;11.868;2023-01-08T08:34:29;3.10;80.20
15394;DHT22;7795;47.986;11.868;2023-01-08T08:36:56;3.10;80.10
15394;DHT22;7795;47.986;11.868;2023-01-08T08:39:22;3.20;80.20
15394;DHT22;7795;47.986;11.868;2023-01-08T08:41:48;3.30;80.30
15394;DHT22;7795;47.986;11.868;2023-01-08T08:44:13;3.30;80.30
15394;DHT22;7795;47.986;11.868;2023-01-08T08:46:39;3.40;80.30
15394;DHT22;7795;47.986;11.868;2023-01-08T08:49:05;3.50;80.30
15394;DHT22;7795;47.986;11.868;2023-01-08T08:51:31;3.50;80.20
15394;DHT22;7795;47.986;11.868;2023-01-08T08:53:58;3.60;80.30
15394;DHT22;7795;47.986;11.868;2023-01-08T08:56:23;3.60;80.30
15394;DHT22;7795;47.986;11.868;2023-01-08T08:58:49;3.70;80.30
15394;DHT22;7795;47.986;11.868;2023-01-08T09:01:17;3.70;80.40
15394;DHT22;7795;47.986;11.868;2023-01-08T09:03:43;3.80;80.40
15394;DHT22;7795;47.986;11.868;2023-01-08T09:06:12;3.80;81.10
15394;DHT22;7795;47.986;11.868;2023-01-08T09:08:37;3.90;80.40
15394;DHT22;7795;47.986;11.868;2023-01-08T09:11:05;4.00;80.50
15394;DHT22;7795;47.986;11.868;2023-01-08T09:13:31;4.00;80.50
15394;DHT22;7795;47.986;11.868;2023-01-08T09:15:57;4.10;80.50
15394;DHT22;7795;47.986;11.868;2023-01-08T09:18:23;4.10;80.50
15394;DHT22;7795;47.986;11.868;2023-01-08T09:20:48;4.20;81.20
15394;DHT22;7795;47.986;11.868;2023-01-08T09:23:14;4.30;80.50
15394;DHT22;7795;47.986;11.868;2023-01-08T09:25:40;4.30;81.20
15394;DHT22;7795;47.986;11.868;2023-01-08T09:28:09;4.40;80.50
15394;DHT22;7795;47.986;11.868;2023-01-08T09:30:37;4.40;80.40
15394;DHT22;7795;47.986;11.868;2023-01-08T09:33:03;4.50;81.20
15394;DHT22;7795;47.986;11.868;2023-01-08T09:35:29;4.60;80.40
15394;DHT22;7795;47.986;11.868;2023-01-08T09:37:55;4.60;80.40
15394;DHT22;7795;47.986;11.868;2023-01-08T09:40:23;4.60;80.40
15394;DHT22;7795;47.986;11.868;2023-01-08T09:42:54;4.70;80.50
15394;DHT22;7795;47.986;11.868;2023-01-08T09:45:26;4.80;80.50
15394;DHT22;7795;47.986;11.868;2023-01-08T09:47:53;4.80;80.50
15394;DHT22;7795;47.986;11.868;2023-01-08T09:50:19;4.90;80.50
15394;DHT22;7795;47.986;11.868;2023-01-08T09:52:46;4.90;80.70
15394;DHT22;7795;47.986;11.868;2023-01-08T09:55:14;5.00;80.80
15394;DHT22;7795;47.986;11.868;2023-01-08T09:57:40;5.10;80.80
15394;DHT22;7795;47.986;11.868;2023-01-08T10:00:12;5.10;80.80
15394;DHT22;7795;47.986;11.868;2023-01-08T10:02:39;5.20;81.00
15394;DHT22;7795;47.986;11.868;2023-01-08T10:05:11;5.30;81.00
15394;DHT22;7795;47.986;11.868;2023-01-08T10:07:38;5.40;81.20
15394;DHT22;7795;47.986;11.868;2023-01-08T10:10:05;5.50;81.20
15394;DHT22;7795;47.986;11.868;2023-01-08T10:12:35;5.50;81.20
15394;DHT22;7795;47.986;11.868;2023-01-08T10:15:03;5.60;81.10
15394;DHT22;7795;47.986;11.868;2023-01-08T10:17:33;5.70;81.10
15394;DHT22;7795;47.986;11.868;2023-01-08T10:20:10;5.80;81.10
15394;DHT22;7795;47.986;11.868;2023-01-08T10:22:36;5.90;81.20
15394;DHT22;7795;47.986;11.868;2023-01-08T10:25:06;6.00;81.10
15394;DHT22;7795;47.986;11.868;2023-01-08T10:27:38;6.10;81.10
15394;DHT22;7795;47.986;11.868;2023-01-08T10:30:14;6.20;81.10
15394;DHT22;7795;47.986;11.868;2023-01-08T10:32:46;6.30;81.20
15394;DHT22;7795;47.986;11.868;2023-01-08T10:35:16;6.40;81.20
15394;DHT22;7795;47.986;11.868;2023-01-08T10:37:43;6.40;81.10
15394;DHT22;7795;47.986;11.868;2023-01-08T10:40:26;6.50;81.00
15394;DHT22;7795;47.986;11.868;2023-01-08T10:42:55;6.60;81.10
15394;DHT22;7795;47.986;11.868;2023-01-08T10:45:23;6.70;81.00
15394;DHT22;7795;47.986;11.868;2023-01-08T10:47:51;6.80;81.00
15394;DHT22;7795;47.986;11.868;2023-01-08T10:50:23;6.90;81.00
15394;DHT22;7795;47.986;11.868;2023-01-08T10:52:54;7.00;81.00
15394;DHT22;7795;47.986;11.868;2023-01-08T10:55:26;7.20;81.00
15394;DHT22;7795;47.986;11.868;2023-01-08T10:57:54;7.30;81.00
15394;DHT22;7795;47.986;11.868;2023-01-08T11:00:25;7.30;81.00
15394;DHT22;7795;47.986;11.868;2023-01-08T11:02:51;7.50;81.00
15394;DHT22;7795;47.986;11.868;2023-01-08T11:05:17;7.50;80.90
15394;DHT22;7795;47.986;11.868;2023-01-08T11:07:51;7.60;80.90
15394;DHT22;7795;47.986;11.868;2023-01-08T11:10:22;7.70;81.00
15394;DHT22;7795;47.986;11.868;2023-01-08T11:12:53;7.80;80.80
15394;DHT22;7795;47.986;11.868;2023-01-08T11:15:31;7.90;80.60
15394;DHT22;7795;47.986;11.868;2023-01-08T11:18:19;8.10;80.60
15394;DHT22;7795;47.986;11.868;2023-01-08T11:20:45;8.10;80.20
15394;DHT22;7795;47.986;11.868;2023-01-08T11:23:16;8.20;80.20
15394;DHT22;7795;47.986;11.868;2023-01-08T11:25:46;8.40;80.20
15394;DHT22;7795;47.986;11.868;2023-01-08T11:28:15;8.40;80.10
15394;DHT22;7795;47.986;11.868;2023-01-08T11:30:51;8.60;80.20
15394;DHT22;7795;47.986;11.868;2023-01-08T11:33:22;8.70;80.10
15394;DHT22;7795;47.986;11.868;2023-01-08T11:35:55;8.70;79.80
15394;DHT22;7795;47.986;11.868;2023-01-08T11:38:22;8.80;79.50
15394;DHT22;7795;47.986;11.868;2023-01-08T11:40:50;8.90;79.50
15394;DHT22;7795;47.986;11.868;2023-01-08T11:43:24;9.00;79.40
15394;DHT22;7795;47.986;11.868;2023-01-08T11:46:13;9.00;79.20
15394;DHT22;7795;47.986;11.868;2023-01-08T11:48:50;9.10;79.10
15394;DHT22;7795;47.986;11.868;2023-01-08T11:51:51;9.20;79.10
15394;DHT22;7795;47.986;11.868;2023-01-08T11:54:36;9.30;79.00
15394;DHT22;7795;47.986;11.868;2023-01-08T11:57:14;9.30;78.90
15394;DHT22;7795;47.986;11.868;2023-01-08T11:59:55;9.40;78.80
15394;DHT22;7795;47.986;11.868;2023-01-08T12:02:35;9.40;78.40
15394;DHT22;7795;47.986;11.868;2023-01-08T12:05:28;9.50;78.20
15394;DHT22;7795;47.986;11.868;2023-01-08T12:07:59;9.50;77.70
15394;DHT22;7795;47.986;11.868;2023-01-08T12:10:39;9.60;77.80
15394;DHT22;7795;47.986;11.868;2023-01-08T12:13:20;9.60;77.70
15394;DHT22;7795;47.986;11.868;2023-01-08T12:15:55;9.60;77.50
15394;DHT22;7795;47.986;11.868;2023-01-08T12:18:35;9.60;77.40
15394;DHT22;7795;47.986;11.868;2023-01-08T12:21:13;9.70;77.10
15394;DHT22;7795;47.986;11.868;2023-01-08T12:23:59;9.70;77.10
15394;DHT22;7795;47.986;11.868;2023-01-08T12:26:33;9.70;76.90
15394;DHT22;7795;47.986;11.868;2023-01-08T12:29:18;9.80;77.10
15394;DHT22;7795;47.986;11.868;2023-01-08T12:32:10;9.80;76.90
15394;DHT22;7795;47.986;11.868;2023-01-08T12:34:46;9.80;77.00
15394;DHT22;7795;47.986;11.868;2023-01-08T12:37:20;9.80;76.90
15394;DHT22;7795;47.986;11.868;2023-01-08T12:39:51;9.90;76.90
15394;DHT22;7795;47.986;11.868;2023-01-08T12:42:26;9.90;76.60
15394;DHT22;7795;47.986;11.868;2023-01-08T12:44:54;10.00;76.10
15394;DHT22;7795;47.986;11.868;2023-01-08T12:47:24;10.00;76.10
15394;DHT22;7795;47.986;11.868;2023-01-08T12:49:58;10.00;75.80
15394;DHT22;7795;47.986;11.868;2023-01-08T12:52:31;10.00;75.60
15394;DHT22;7795;47.986;11.868;2023-01-08T12:55:05;10.10;75.60
15394;DHT22;7795;47.986;11.868;2023-01-08T12:57:43;10.10;75.40
15394;DHT22;7795;47.986;11.868;2023-01-08T13:00:17;10.10;75.30
15394;DHT22;7795;47.986;11.868;2023-01-08T13:02:52;10.10;75.20
15394;DHT22;7795;47.986;11.868;2023-01-08T13:05:32;10.10;75.20
15394;DHT22;7795;47.986;11.868;2023-01-08T13:07:59;10.20;75.00
15394;DHT22;7795;47.986;11.868;2023-01-08T13:10:33;10.20;75.30
15394;DHT22;7795;47.986;11.868;2023-01-08T13:13:02;10.20;75.00
15394;DHT22;7795;47.986;11.868;2023-01-08T13:15:30;10.20;75.10
15394;DHT22;7795;47.986;11.868;2023-01-08T13:17:59;10.20;75.10
15394;DHT22;7795;47.986;11.868;2023-01-08T13:20:29;10.20;75.20
15394;DHT22;7795;47.986;11.868;2023-01-08T13:22:57;10.20;75.30
15394;DHT22;7795;47.986;11.868;2023-01-08T13:25:34;10.20;75.10
15394;DHT22;7795;47.986;11.868;2023-01-08T13:28:17;10.20;75.00
15394;DHT22;7795;47.986;11.868;2023-01-08T13:30:48;10.20;74.90
15394;DHT22;7795;47.986;11.868;2023-01-08T13:33:35;10.20;75.20
15394;DHT22;7795;47.986;11.868;2023-01-08T13:36:17;10.20;75.00
15394;DHT22;7795;47.986;11.868;2023-01-08T13:39:03;10.20;75.00
15394;DHT22;7795;47.986;11.868;2023-01-08T13:41:31;10.20;75.00
15394;DHT22;7795;47.986;11.868;2023-01-08T13:44:00;10.20;75.10
15394;DHT22;7795;47.986;11.868;2023-01-08T13:46:27;10.20;75.10
15394;DHT22;7795;47.986;11.868;2023-01-08T13:48:58;10.20;75.20
15394;DHT22;7795;47.986;11.868;2023-01-08T13:51:31;10.20;75.10
15394;DHT22;7795;47.986;11.868;2023-01-08T13:54:04;10.20;75.10
15394;DHT22;7795;47.986;11.868;2023-01-08T13:56:30;10.20;75.20
15394;DHT22;7795;47.986;11.868;2023-01-08T13:58:56;10.20;75.30
15394;DHT22;7795;47.986;11.868;2023-01-08T14:01:23;10.20;76.10
15394;DHT22;7795;47.986;11.868;2023-01-08T14:03:49;10.20;75.30
15394;DHT22;7795;47.986;11.868;2023-01-08T14:06:17;10.20;75.30
15394;DHT22;7795;47.986;11.868;2023-01-08T14:08:50;10.20;75.20
15394;DHT22;7795;47.986;11.868;2023-01-08T14:11:16;10.20;75.10
15394;DHT22;7795;47.986;11.868;2023-01-08T14:13:43;10.20;75.30
15394;DHT22;7795;47.986;11.868;2023-01-08T14:16:13;10.10;75.30
15394;DHT22;7795;47.986;11.868;2023-01-08T14:18:40;10.10;75.10
15394;DHT22;7795;47.986;11.868;2023-01-08T14:21:07;10.10;75.20
15394;DHT22;7795;47.986;11.868;2023-01-08T14:23:36;10.10;75.20
15394;DHT22;7795;47.986;11.868;2023-01-08T14:26:05;10.10;75.10
15394;DHT22;7795;47.986;11.868;2023-01-08T14:28:33;10.10;75.30
15394;DHT22;7795;47.986;11.868;2023-01-08T14:30:59;10.10;75.40
15394;DHT22;7795;47.986;11.868;2023-01-08T14:33:29;10.10;75.40
15394;DHT22;7795;47.986;11.868;2023-01-08T14:35:58;10.10;75.40
15394;DHT22;7795;47.986;11.868;2023-01-08T14:38:24;10.10;75.50
15394;DHT22;7795;47.986;11.868;2023-01-08T14:40:57;10.00;75.50
15394;DHT22;7795;47.986;11.868;2023-01-08T14:43:24;10.00;75.40
15394;DHT22;7795;47.986;11.868;2023-01-08T14:45:51;10.00;75.50
15394;DHT22;7795;47.986;11.868;2023-01-08T14:48:22;10.00;75.60
15394;DHT22;7795;47.986;11.868;2023-01-08T14:51:02;10.00;75.60
15394;DHT22;7795;47.986;11.868;2023-01-08T14:53:31;10.00;75.60
15394;DHT22;7795;47.986;11.868;2023-01-08T14:55:59;10.00;75.70
15394;DHT22;7795;47.986;11.868;2023-01-08T14:58:27;10.00;75.60
15394;DHT22;7795;47.986;11.868;2023-01-08T15:00:56;9.90;75.50
15394;DHT22;7795;47.986;11.868;2023-01-08T15:03:31;9.90;75.60
15394;DHT22;7795;47.986;11.868;2023-01-08T15:05:57;9.90;75.60
15394;DHT22;7795;47.986;11.868;2023-01-08T15:08:25;9.90;75.70
15394;DHT22;7795;47.986;11.868;2023-01-08T15:10:59;9.80;75.70
15394;DHT22;7795;47.986;11.868;2023-01-08T15:13:30;9.80;75.70
15394;DHT22;7795;47.986;11.868;2023-01-08T15:16:00;9.80;75.80
15394;DHT22;7795;47.986;11.868;2023-01-08T15:18:26;9.80;75.90
15394;DHT22;7795;47.986;11.868;2023-01-08T15:20:52;9.80;75.90
15394;DHT22;7795;47.986;11.868;2023-01-08T15:23:31;9.80;75.90
15394;DHT22;7795;47.986;11.868;2023-01-08T15:26:00;9.80;76.00
15394;DHT22;7795;47.986;11.868;2023-01-08T15:28:26;9.70;75.90
15394;DHT22;7795;47.986;11.868;2023-01-08T15:30:52;9.70;76.00
15394;DHT22;7795;47.986;11.868;2023-01-08T15:33:19;9.70;76.10
15394;DHT22;7795;47.986;11.868;2023-01-08T15:35:45;9.70;76.10
15394;DHT22;7795;47.986;11.868;2023-01-08T15:38:11;9.60;76.10
15394;DHT22;7795;47.986;11.868;2023-01-08T15:40:39;9.60;76.20
15394;DHT22;7795;47.986;11.868;2023-01-08T15:43:05;9.60;76.90
15394;DHT22;7795;47.986;11.868;2023-01-08T15:45:38;9.60;76.20
15394;DHT22;7795;47.986;11.868;2023-01-08T15:48:04;9.60;76.90
15394;DHT22;7795;47.986;11.868;2023-01-08T15:50:31;9.50;76.10
15394;DHT22;7795;47.986;11.868;2023-01-08T15:53:05;9.50;76.20
15394;DHT22;7795;47.986;11.868;2023-01-08T15:55:32;9.50;76.10
15394;DHT22;7795;47.986;11.868;2023-01-08T15:57:59;9.50;76.10
15394;DHT22;7795;47.986;11.868;2023-01-08T16:00:25;9.50;76.20